Time;durP1;ratioP1;P1;durP2;ratioP2;P2;SDS_P1;SDS_P2;PMS_P1;PMS_P2;Temp;Humidity;BMP_temperature;BMP_pressure;BME280_temperature;BME280_humidity;BME280_pressure;Samples;Min_cycle;Max_cycle;Signal;HPM_P1;HPM_P2
2023/05/19 00:01:56;;;;;;;11.50;7.57;;;5.80;92.90;;;;;;5015532;28;20482;-49
2023/05/19 00:04:22;;;;;;;12.57;7.63;;;5.80;85.70;;;;;;5015099;28;20448;-49
2023/05/19 00:06:50;;;;;;;11.10;7.83;;;5.70;99.90;;;;;;5015162;28;20435;-49
2023/05/19 00:09:16;;;;;;;16.17;8.10;;;5.80;90.60;;;;;;5015581;28;20439;-49
2023/05/19 00:11:42;;;;;;;9.90;7.60;;;5.70;99.90;;;;;;5015760;28;20447;-49
2023/05/19 00:14:08;;;;;;;9.40;7.00;;;5.70;99.90;;;;;;5015015;28;20188;-49
2023/05/19 00:16:36;;;;;;;10.63;7.00;;;5.70;99.90;;;;;;5015527;28;20242;-49
2023/05/19 00:19:04;;;;;;;12.30;6.57;;;5.70;99.90;;;;;;5014644;28;20466;-49
2023/05/19 00:21:30;;;;;;;11.63;7.03;;;5.70;99.90;;;;;;5017342;28;20485;-49
2023/05/19 00:23:56;;;;;;;10.83;8.00;;;5.70;99.90;;;;;;5020191;28;20438;-49
2023/05/19 00:26:23;;;;;;;15.03;8.03;;;5.70;99.90;;;;;;5014540;28;20965;-49
2023/05/19 00:28:49;;;;;;;12.20;7.20;;;5.70;99.90;;;;;;5014920;28;20446;-49
2023/05/19 00:31:15;;;;;;;13.27;8.00;;;5.70;99.90;;;;;;5018291;28;20464;-48
2023/05/19 00:33:40;;;;;;;13.63;8.20;;;5.70;99.90;;;;;;5015005;28;20530;-48
2023/05/19 00:36:07;;;;;;;14.77;7.63;;;5.80;99.90;;;;;;5014720;28;20245;-49
2023/05/19 00:38:34;;;;;;;9.83;7.30;;;5.70;99.90;;;;;;5015018;28;20664;-49
2023/05/19 00:41:01;;;;;;;13.33;7.37;;;5.70;99.90;;;;;;5014729;28;20481;-49
2023/05/19 00:43:26;;;;;;;15.40;8.23;;;5.70;99.90;;;;;;5014332;28;20577;-49
2023/05/19 00:45:52;;;;;;;13.90;8.20;;;5.70;99.90;;;;;;5014951;28;20522;-49
2023/05/19 00:48:18;;;;;;;13.90;6.90;;;5.70;99.90;;;;;;5015021;28;20195;-49
2023/05/19 00:50:44;;;;;;;12.10;7.70;;;5.80;99.90;;;;;;5013972;28;20238;-49
2023/05/19 00:53:11;;;;;;;10.83;6.43;;;5.80;99.90;;;;;;5015147;28;20206;-49
2023/05/19 00:55:39;;;;;;;12.20;7.80;;;5.70;99.90;;;;;;5014441;28;20438;-49
2023/05/19 00:58:06;;;;;;;10.07;7.30;;;5.70;99.90;;;;;;5018392;28;20474;-49
2023/05/19 01:00:32;;;;;;;11.83;7.30;;;5.60;99.90;;;;;;5014705;28;20529;-49
2023/05/19 01:02:58;;;;;;;14.73;7.30;;;5.60;99.90;;;;;;5015705;28;20544;-49
2023/05/19 01:05:24;;;;;;;12.67;6.93;;;5.60;1.00;;;;;;5016110;28;20435;-49
2023/05/19 01:07:52;;;;;;;10.97;7.10;;;5.60;1.00;;;;;;5015354;28;20184;-49
2023/05/19 01:10:18;;;;;;;15.00;6.53;;;5.60;1.00;;;;;;5015676;28;20462;-49
2023/05/19 01:12:44;;;;;;;10.80;7.10;;;5.60;1.00;;;;;;5019748;28;20435;-49
2023/05/19 01:15:11;;;;;;;20.37;7.80;;;5.60;1.00;;;;;;5016761;28;20504;-49
2023/05/19 01:17:36;;;;;;;17.73;7.53;;;5.60;1.00;;;;;;5015919;28;20442;-49
2023/05/19 01:20:29;;;;;;;16.43;7.13;;;5.60;1.00;;;;;;5015371;28;20496;-49
2023/05/19 01:23:26;;;;;;;9.10;6.20;;;5.60;1.00;;;;;;5014900;28;20695;-49
2023/05/19 01:26:10;;;;;;;8.37;5.77;;;5.50;1.00;;;;;;5015325;28;20458;-49
2023/05/19 01:28:55;;;;;;;11.47;6.40;;;5.60;1.00;;;;;;5015208;28;21193;-49
2023/05/19 01:31:22;;;;;;;12.80;7.07;;;5.60;1.00;;;;;;5018608;28;20950;-49
2023/05/19 01:33:51;;;;;;;8.27;6.30;;;5.60;1.00;;;;;;5020006;28;20439;-49
2023/05/19 01:36:18;;;;;;;12.23;6.10;;;5.60;1.00;;;;;;5023263;28;20525;-49
2023/05/19 01:38:46;;;;;;;13.83;7.27;;;5.60;1.00;;;;;;5028350;28;20449;-49
2023/05/19 01:41:13;;;;;;;13.47;6.17;;;5.60;1.00;;;;;;5018837;28;20482;-49
2023/05/19 01:43:39;;;;;;;10.00;6.40;;;5.60;1.00;;;;;;5023067;28;20812;-49
2023/05/19 01:46:05;;;;;;;13.90;6.67;;;5.50;1.00;;;;;;5019544;28;20534;-49
2023/05/19 01:48:32;;;;;;;14.43;7.30;;;5.50;1.00;;;;;;5019586;28;20534;-49
2023/05/19 01:50:58;;;;;;;18.00;6.60;;;5.50;1.00;;;;;;5019080;28;20478;-49
2023/05/19 01:53:24;;;;;;;7.73;5.80;;;5.40;1.00;;;;;;5018839;28;20908;-49
2023/05/19 01:55:53;;;;;;;11.93;6.67;;;5.40;1.00;;;;;;5023698;28;20240;-49
2023/05/19 01:58:41;;;;;;;13.27;6.50;;;5.40;1.00;;;;;;5019656;28;20924;-49
2023/05/19 02:01:16;;;;;;;12.63;6.93;;;5.40;1.00;;;;;;5026586;28;20540;-49
2023/05/19 02:03:46;;;;;;;12.37;6.03;;;5.30;1.00;;;;;;5019344;28;20435;-49
2023/05/19 02:06:27;;;;;;;10.80;6.73;;;5.30;1.00;;;;;;5019004;28;20451;-49
2023/05/19 02:08:59;;;;;;;10.07;6.40;;;5.30;1.00;;;;;;5018926;28;20445;-49
2023/05/19 02:11:50;;;;;;;13.53;6.57;;;5.30;1.00;;;;;;5019581;28;20538;-49
2023/05/19 02:14:23;;;;;;;12.20;5.63;;;5.30;1.00;;;;;;5023345;28;20532;-49
2023/05/19 02:16:50;;;;;;;13.30;7.17;;;5.30;1.00;;;;;;5022295;28;20441;-49
2023/05/19 02:19:37;;;;;;;20.57;6.53;;;5.20;21.90;;;;;;5022365;28;20441;-49
2023/05/19 02:22:03;;;;;;;14.23;6.47;;;5.30;38.00;;;;;;5018582;28;20481;-49
2023/05/19 02:24:29;;;;;;;17.47;7.80;;;5.20;99.90;;;;;;5022854;28;20447;-49
2023/05/19 02:26:54;;;;;;;15.63;7.00;;;5.20;99.90;;;;;;5022350;28;20192;-49
2023/05/19 02:29:20;;;;;;;11.70;6.80;;;5.20;99.90;;;;;;5018278;28;20176;-49
2023/05/19 02:31:46;;;;;;;17.23;7.43;;;5.30;99.90;;;;;;5018596;28;20231;-49
2023/05/19 02:34:12;;;;;;;13.13;7.20;;;5.30;99.90;;;;;;5017846;28;20187;-49
2023/05/19 02:36:40;;;;;;;17.07;7.13;;;5.30;99.90;;;;;;5018468;28;20540;-49
2023/05/19 02:39:05;;;;;;;19.90;7.97;;;5.30;99.90;;;;;;5018464;28;20187;-49
2023/05/19 02:41:31;;;;;;;18.17;8.20;;;5.40;99.90;;;;;;5017691;28;20482;-49
2023/05/19 02:43:56;;;;;;;11.83;7.37;;;5.40;99.90;;;;;;5017862;28;20190;-49
2023/05/19 02:46:22;;;;;;;12.70;8.07;;;5.40;99.90;;;;;;5018390;28;20231;-49
2023/05/19 02:48:48;;;;;;;11.00;6.93;;;5.50;99.90;;;;;;5018107;28;20195;-49
2023/05/19 02:51:14;;;;;;;17.60;7.80;;;5.50;99.90;;;;;;5018984;28;20235;-49
2023/05/19 02:53:39;;;;;;;13.33;8.27;;;5.50;99.90;;;;;;5025239;28;20550;-49
2023/05/19 02:56:05;;;;;;;17.67;7.63;;;5.60;99.90;;;;;;5021878;28;20538;-49
2023/05/19 02:58:31;;;;;;;17.80;8.40;;;5.60;1.00;;;;;;5021719;28;20206;-49
2023/05/19 03:00:56;;;;;;;14.33;8.20;;;5.60;1.00;;;;;;5017185;28;20651;-49
2023/05/19 03:03:22;;;;;;;14.60;8.30;;;5.60;1.00;;;;;;5018334;28;20278;-49
2023/05/19 03:05:47;;;;;;;17.37;8.10;;;5.60;1.00;;;;;;5017985;28;20191;-49
2023/05/19 03:08:13;;;;;;;13.27;7.93;;;5.70;1.00;;;;;;5017333;28;20263;-49
2023/05/19 03:10:38;;;;;;;10.70;7.13;;;5.70;1.00;;;;;;5018228;28;20188;-49
2023/05/19 03:13:04;;;;;;;13.60;7.90;;;5.70;1.00;;;;;;5017204;28;20195;-49
2023/05/19 03:15:31;;;;;;;12.90;6.80;;;5.70;1.00;;;;;;5018130;28;20192;-49
2023/05/19 03:17:57;;;;;;;15.30;8.30;;;5.80;1.00;;;;;;5017475;28;20472;-49
2023/05/19 03:20:23;;;;;;;14.60;9.60;;;5.80;1.00;;;;;;5017552;28;20438;-49
2023/05/19 03:22:49;;;;;;;21.53;7.77;;;5.80;1.00;;;;;;5016862;28;20269;-48
2023/05/19 03:25:15;;;;;;;14.13;7.67;;;5.80;1.00;;;;;;5017672;28;20435;-49
2023/05/19 03:27:40;;;;;;;19.77;7.90;;;5.90;1.00;;;;;;5017648;28;20438;-49
2023/05/19 03:30:07;;;;;;;11.53;6.80;;;5.90;1.00;;;;;;5017173;28;20205;-49
2023/05/19 03:32:32;;;;;;;14.83;7.73;;;5.90;1.00;;;;;;5021734;28;20279;-49
2023/05/19 03:34:58;;;;;;;17.33;8.13;;;5.90;1.00;;;;;;5016804;28;20609;-49
2023/05/19 03:37:24;;;;;;;12.77;6.90;;;5.90;1.00;;;;;;5020808;28;20227;-49
2023/05/19 03:39:49;;;;;;;11.93;7.10;;;6.00;99.90;;;;;;5017390;28;20188;-49
2023/05/19 03:42:15;;;;;;;18.70;8.83;;;6.00;99.90;;;;;;5017218;28;20216;-49
2023/05/19 03:44:40;;;;;;;10.83;7.90;;;6.00;99.90;;;;;;5016840;28;20183;-49
2023/05/19 03:47:06;;;;;;;20.13;8.40;;;6.10;99.90;;;;;;5017049;28;20207;-49
2023/05/19 03:49:32;;;;;;;18.77;8.00;;;6.20;99.90;;;;;;5017155;28;20198;-49
2023/05/19 03:51:57;;;;;;;14.73;7.10;;;6.20;99.90;;;;;;5016717;28;20263;-49
2023/05/19 03:54:23;;;;;;;11.00;7.40;;;6.20;99.90;;;;;;5016193;28;20188;-49
2023/05/19 03:56:49;;;;;;;13.63;7.60;;;6.30;99.90;;;;;;5016692;28;20179;-48
2023/05/19 03:59:15;;;;;;;10.20;7.10;;;6.40;99.90;;;;;;5016465;28;20195;-50
2023/05/19 04:01:40;;;;;;;15.10;8.20;;;6.40;99.90;;;;;;5017198;28;20266;-49
2023/05/19 04:04:06;;;;;;;12.40;7.00;;;6.50;99.90;;;;;;5016882;28;20435;-49
2023/05/19 04:06:32;;;;;;;11.20;7.53;;;6.60;99.90;;;;;;5016694;28;20234;-49
2023/05/19 04:08:58;;;;;;;13.73;8.40;;;6.60;99.90;;;;;;5016871;28;20525;-49
2023/05/19 04:11:24;;;;;;;9.47;6.83;;;6.70;62.10;;;;;;5016724;28;20439;-49
2023/05/19 04:13:50;;;;;;;12.27;8.80;;;6.70;43.60;;;;;;5015918;28;20434;-49
2023/05/19 04:16:15;;;;;;;12.30;7.60;;;6.80;30.80;;;;;;5016075;28;20184;-49
2023/05/19 04:18:41;;;;;;;11.87;7.33;;;6.90;18.60;;;;;;5016234;28;20195;-49
2023/05/19 04:21:07;;;;;;;17.00;8.03;;;7.00;1.00;;;;;;5015942;28;20190;-49
2023/05/19 04:23:33;;;;;;;11.20;6.47;;;7.10;1.00;;;;;;5015844;28;20663;-49
2023/05/19 04:26:00;;;;;;;12.90;8.23;;;7.10;1.00;;;;;;5016772;28;20431;-49
2023/05/19 04:28:26;;;;;;;17.47;8.20;;;7.20;1.00;;;;;;5016445;28;20207;-49
2023/05/19 04:30:51;;;;;;;13.60;7.77;;;7.30;1.00;;;;;;5015612;28;20587;-49
2023/05/19 04:33:18;;;;;;;13.03;7.40;;;7.30;1.00;;;;;;5016652;28;20196;-49
2023/05/19 04:35:44;;;;;;;12.80;7.20;;;7.40;1.00;;;;;;5015858;28;20192;-49
2023/05/19 04:38:10;;;;;;;10.13;6.70;;;7.40;1.00;;;;;;5015744;28;20453;-49
2023/05/19 04:40:36;;;;;;;14.10;7.20;;;7.50;1.00;;;;;;5016428;28;20529;-49
2023/05/19 04:43:02;;;;;;;15.93;7.40;;;7.60;1.00;;;;;;5016199;28;20490;-49
2023/05/19 04:45:28;;;;;;;18.03;7.77;;;7.70;1.00;;;;;;5019031;28;20187;-49
2023/05/19 04:47:56;;;;;;;12.47;7.43;;;7.90;1.00;;;;;;5020553;28;20680;-49
2023/05/19 04:50:22;;;;;;;16.73;6.60;;;8.00;99.90;;;;;;5015289;28;20240;-50
2023/05/19 04:52:48;;;;;;;11.77;7.03;;;8.10;99.90;;;;;;5023312;28;20433;-49
2023/05/19 04:55:14;;;;;;;13.90;7.50;;;8.30;99.90;;;;;;5016986;28;20442;-49
2023/05/19 04:57:40;;;;;;;13.73;7.37;;;8.30;99.90;;;;;;5019613;28;20192;-49
2023/05/19 05:00:12;;;;;;;19.30;7.40;;;8.40;99.90;;;;;;5015728;28;20439;-49
2023/05/19 05:02:38;;;;;;;9.43;6.40;;;8.50;99.90;;;;;;5016204;28;20238;-49
2023/05/19 05:05:04;;;;;;;16.77;7.20;;;8.60;99.90;;;;;;5016558;28;20857;-49
2023/05/19 05:07:30;;;;;;;16.13;7.50;;;8.70;99.90;;;;;;5022122;28;20186;-49
2023/05/19 05:09:56;;;;;;;11.60;7.27;;;8.70;96.00;;;;;;5022731;28;20524;-49
2023/05/19 05:12:22;;;;;;;16.13;7.40;;;8.80;99.90;;;;;;5022721;28;20955;-49
2023/05/19 05:14:47;;;;;;;12.53;7.07;;;8.90;99.90;;;;;;5022262;28;20245;-49
2023/05/19 05:17:13;;;;;;;12.17;6.57;;;9.00;98.20;;;;;;5022254;28;20238;-49
2023/05/19 05:19:39;;;;;;;12.77;6.80;;;9.10;71.50;;;;;;5022488;28;20266;-49
2023/05/19 05:22:06;;;;;;;10.13;6.53;;;9.20;26.50;;;;;;5021702;28;20227;-49
2023/05/19 05:24:31;;;;;;;19.20;7.43;;;9.30;5.70;;;;;;5025937;28;20802;-49
2023/05/19 05:26:58;;;;;;;15.93;6.97;;;9.40;2.10;;;;;;5026303;28;20447;-49
2023/05/19 05:29:24;;;;;;;12.27;6.23;;;9.60;1.00;;;;;;5022180;28;20192;-49
2023/05/19 05:31:50;;;;;;;13.50;6.20;;;9.70;1.00;;;;;;5021873;28;20438;-49
2023/05/19 05:34:16;;;;;;;10.77;7.00;;;9.90;1.00;;;;;;5021982;28;20938;-48
2023/05/19 05:36:41;;;;;;;14.53;6.90;;;9.90;1.00;;;;;;5022458;28;20195;-49
2023/05/19 05:39:07;;;;;;;13.07;6.20;;;10.00;1.00;;;;;;5021418;28;20804;-49
2023/05/19 05:41:35;;;;;;;11.57;6.53;;;10.10;1.00;;;;;;5022235;28;20299;-49
2023/05/19 05:44:01;;;;;;;13.37;5.93;;;10.30;1.00;;;;;;5022126;28;20246;-49
2023/05/19 05:46:27;;;;;;;14.13;5.90;;;10.40;1.00;;;;;;5021680;28;20446;-49
2023/05/19 05:48:53;;;;;;;9.60;5.83;;;10.40;1.00;;;;;;5021782;28;20466;-49
2023/05/19 05:51:22;;;;;;;13.40;6.27;;;10.60;1.00;;;;;;5022490;28;20258;-49
2023/05/19 05:53:52;;;;;;;12.03;6.37;;;10.70;1.00;;;;;;5022554;28;20190;-49
2023/05/19 05:56:18;;;;;;;12.30;6.53;;;10.90;1.00;;;;;;5021806;28;20942;-49
2023/05/19 05:58:43;;;;;;;12.43;6.43;;;11.10;1.00;;;;;;5021988;28;20796;-50
2023/05/19 06:01:09;;;;;;;14.00;5.43;;;11.20;1.00;;;;;;5021712;28;20437;-49
2023/05/19 06:03:37;;;;;;;8.17;5.97;;;11.40;1.00;;;;;;5025981;28;20249;-49
2023/05/19 06:06:03;;;;;;;17.13;5.80;;;11.60;1.00;;;;;;5021745;28;20447;-49
2023/05/19 06:08:29;;;;;;;10.60;5.60;;;11.80;1.00;;;;;;5021729;28;20453;-50
2023/05/19 06:10:55;;;;;;;12.63;5.77;;;11.90;1.00;;;;;;5022091;28;20435;-50
2023/05/19 06:13:22;;;;;;;11.17;5.53;;;12.10;1.00;;;;;;5021260;28;20188;-49
2023/05/19 06:15:49;;;;;;;9.83;4.57;;;12.20;1.00;;;;;;5021500;28;20192;-50
2023/05/19 06:18:15;;;;;;;10.90;5.30;;;12.30;1.00;;;;;;5018022;28;20430;-49
2023/05/19 06:20:40;;;;;;;8.43;5.50;;;12.50;1.00;;;;;;5026373;28;20431;-49
2023/05/19 06:23:06;;;;;;;14.00;5.23;;;12.70;1.00;;;;;;5018050;28;20224;-50
2023/05/19 06:25:32;;;;;;;14.70;5.17;;;12.80;1.00;;;;;;5018907;28;20196;-49
2023/05/19 06:27:57;;;;;;;13.97;5.20;;;12.90;1.00;;;;;;5018712;28;20193;-49
2023/05/19 06:30:23;;;;;;;8.50;4.83;;;12.80;1.00;;;;;;5017928;28;20199;-50
2023/05/19 06:32:48;;;;;;;13.23;4.80;;;12.90;1.00;;;;;;5018634;28;20188;-49
2023/05/19 06:35:14;;;;;;;9.40;5.43;;;13.10;1.00;;;;;;5018218;28;20195;-49
2023/05/19 06:37:39;;;;;;;12.77;5.37;;;13.30;1.00;;;;;;5022520;28;20235;-50
2023/05/19 06:40:07;;;;;;;14.80;4.80;;;13.50;1.00;;;;;;5022301;28;20259;-50
2023/05/19 06:42:32;;;;;;;8.10;3.80;;;13.60;1.00;;;;;;5018425;28;20232;-50
2023/05/19 06:44:58;;;;;;;11.13;4.67;;;13.60;1.00;;;;;;5022128;28;20435;-50
2023/05/19 06:47:24;;;;;;;6.93;3.83;;;13.70;1.00;;;;;;5017902;28;20210;-49
2023/05/19 06:49:53;;;;;;;10.80;4.50;;;13.90;1.00;;;;;;5022397;28;20542;-49
2023/05/19 06:52:22;;;;;;;8.37;3.90;;;14.30;99.90;;;;;;5025397;28;20222;-49
2023/05/19 06:54:48;;;;;;;9.17;4.07;;;14.60;99.90;;;;;;5018743;28;20446;-49
2023/05/19 06:57:14;;;;;;;10.57;3.73;;;15.00;99.90;;;;;;5022440;28;20441;-50
2023/05/19 06:59:40;;;;;;;14.10;3.80;;;15.10;99.90;;;;;;5021328;28;20966;-50
2023/05/19 07:02:06;;;;;;;12.50;4.07;;;15.20;99.90;;;;;;5018189;28;20257;-49
2023/05/19 07:04:32;;;;;;;11.10;3.60;;;15.10;99.90;;;;;;5017726;28;20434;-49
2023/05/19 07:06:58;;;;;;;11.30;3.50;;;15.10;99.90;;;;;;5017366;28;20443;-50
2023/05/19 07:09:23;;;;;;;8.93;3.67;;;15.20;99.90;;;;;;5018009;28;20591;-49
2023/05/19 07:11:49;;;;;;;7.83;3.20;;;15.50;99.90;;;;;;5018050;28;20191;-49
2023/05/19 07:14:15;;;;;;;8.20;3.20;;;15.80;99.90;;;;;;5017646;28;20252;-49
2023/05/19 07:16:40;;;;;;;12.13;3.53;;;16.00;99.90;;;;;;5017531;28;20216;-49
2023/05/19 07:19:06;;;;;;;11.90;3.53;;;16.30;99.90;;;;;;5021006;28;20186;-50
2023/05/19 07:21:31;;;;;;;11.40;3.63;;;16.80;99.90;;;;;;5021444;28;20305;-50
2023/05/19 07:23:57;;;;;;;9.87;4.27;;;17.10;99.90;;;;;;5017121;28;20277;-50
2023/05/19 07:26:23;;;;;;;9.70;3.17;;;17.60;99.90;;;;;;5017682;28;20191;-50
2023/05/19 07:28:48;;;;;;;10.93;3.60;;;18.10;99.90;;;;;;5017655;28;20585;-51
2023/05/19 07:31:14;;;;;;;5.60;2.87;;;18.50;99.90;;;;;;5016914;28;20679;-51
2023/05/19 07:33:40;;;;;;;10.77;3.10;;;18.90;99.90;;;;;;5017309;28;20182;-50
2023/05/19 07:36:05;;;;;;;8.87;3.63;;;19.40;99.90;;;;;;5017295;28;20191;-52
2023/05/19 07:38:33;;;;;;;6.50;2.97;;;19.50;99.90;;;;;;5016574;28;20283;-52
2023/05/19 07:41:00;;;;;;;9.90;3.20;;;19.90;99.90;;;;;;5017390;28;20202;-52
2023/05/19 07:43:26;;;;;;;9.03;2.80;;;20.10;99.90;;;;;;5016768;28;20902;-52
2023/05/19 07:45:52;;;;;;;10.33;3.70;;;19.90;99.90;;;;;;5017044;28;20480;-53
2023/05/19 07:48:21;;;;;;;7.97;3.10;;;19.90;99.90;;;;;;5016697;28;20210;-52
2023/05/19 07:50:47;;;;;;;6.43;2.97;;;20.00;99.90;;;;;;5017637;28;20496;-51
2023/05/19 07:53:13;;;;;;;6.23;2.50;;;20.00;99.90;;;;;;5017282;28;20485;-53
2023/05/19 07:55:38;;;;;;;10.87;3.20;;;20.00;99.90;;;;;;5017902;28;20442;-52
2023/05/19 07:58:04;;;;;;;9.53;3.40;;;20.10;99.90;;;;;;5019295;28;20533;-51
2023/05/19 08:00:30;;;;;;;12.03;3.20;;;20.50;99.90;;;;;;5020760;28;20183;-52
2023/05/19 08:02:56;;;;;;;6.93;3.40;;;20.50;99.90;;;;;;5016279;28;20231;-52
2023/05/19 08:05:22;;;;;;;11.10;3.20;;;20.40;99.90;;;;;;5020677;28;20206;-51
2023/05/19 08:07:48;;;;;;;10.50;3.50;;;20.00;99.90;;;;;;5016698;28;20441;-53
2023/05/19 08:10:13;;;;;;;10.57;3.33;;;19.70;99.90;;;;;;5016645;28;20957;-52
2023/05/19 08:12:39;;;;;;;8.13;2.70;;;19.60;99.90;;;;;;5016253;28;20449;-52
2023/05/19 08:15:06;;;;;;;6.50;2.83;;;19.50;99.90;;;;;;5016651;28;20186;-52
2023/05/19 08:17:31;;;;;;;5.27;2.73;;;19.80;99.90;;;;;;5016346;28;20278;-53
2023/05/19 08:19:57;;;;;;;8.30;3.13;;;20.00;99.90;;;;;;5016280;28;20444;-53
2023/05/19 08:22:23;;;;;;;6.83;2.97;;;20.10;99.90;;;;;;5020031;28;20305;-53
2023/05/19 08:24:50;;;;;;;11.10;3.30;;;20.00;99.90;;;;;;5016366;28;20226;-52
2023/05/19 08:27:16;;;;;;;13.57;3.73;;;19.70;99.90;;;;;;5016006;28;20198;-51
2023/05/19 08:29:42;;;;;;;5.37;2.77;;;19.30;99.90;;;;;;5016272;28;20780;-53
2023/05/19 08:32:07;;;;;;;10.73;3.27;;;19.40;99.90;;;;;;5016533;28;20199;-52
2023/05/19 08:34:33;;;;;;;10.83;3.47;;;19.10;99.90;;;;;;5015705;28;20450;-53
2023/05/19 08:36:58;;;;;;;9.60;3.20;;;19.30;99.90;;;;;;5016264;28;20188;-51
2023/05/19 08:39:27;;;;;;;6.20;2.90;;;19.80;99.90;;;;;;5015839;28;20246;-52
2023/05/19 08:41:53;;;;;;;8.53;2.77;;;20.60;99.90;;;;;;5015223;28;20236;-53
2023/05/19 08:44:19;;;;;;;12.00;3.07;;;21.30;99.90;;;;;;5016038;28;20451;-53
2023/05/19 08:46:46;;;;;;;7.20;2.60;;;21.70;99.90;;;;;;5016344;28;20923;-53
2023/05/19 08:49:13;;;;;;;6.70;2.93;;;22.00;99.90;;;;;;5016272;28;20189;-53
2023/05/19 08:52:08;;;;;;;7.90;3.30;;;22.50;99.90;;;;;;5015698;28;20488;-52
2023/05/19 08:54:45;;;;;;;7.70;2.73;;;22.80;99.90;;;;;;5015029;28;20852;-52
2023/05/19 08:57:11;;;;;;;8.03;2.60;;;22.20;99.90;;;;;;5016553;28;20445;-53
2023/05/19 08:59:39;;;;;;;6.37;2.60;;;22.00;99.90;;;;;;5016149;28;20539;-52
2023/05/19 09:02:06;;;;;;;4.07;2.50;;;21.80;99.90;;;;;;5015386;28;20482;-52
2023/05/19 09:04:32;;;;;;;7.83;2.67;;;21.90;99.90;;;;;;5016370;28;20437;-52
2023/05/19 09:07:01;;;;;;;10.07;2.57;;;22.00;99.90;;;;;;5015529;28;20450;-52
2023/05/19 09:09:27;;;;;;;9.53;2.50;;;22.40;99.90;;;;;;5015765;28;20668;-53
2023/05/19 09:11:53;;;;;;;9.03;2.57;;;22.90;99.90;;;;;;5015716;28;20829;-52
2023/05/19 09:14:19;;;;;;;6.43;2.13;;;23.10;99.90;;;;;;5016026;28;20453;-53
2023/05/19 09:16:48;;;;;;;5.87;2.33;;;23.50;99.90;;;;;;5015792;28;20189;-53
2023/05/19 09:19:14;;;;;;;7.60;2.90;;;23.50;99.90;;;;;;5015326;28;20637;-53
2023/05/19 09:21:40;;;;;;;6.50;3.00;;;23.70;99.90;;;;;;5015249;28;21616;-53
2023/05/19 09:24:07;;;;;;;7.77;2.60;;;23.90;99.90;;;;;;5015730;28;20452;-53
2023/05/19 09:26:40;;;;;;;7.53;2.73;;;23.60;99.90;;;;;;5015875;28;20217;-53
2023/05/19 09:29:12;;;;;;;9.17;2.90;;;23.20;99.90;;;;;;5016068;28;20468;-53
2023/05/19 09:31:38;;;;;;;5.27;2.60;;;23.30;99.90;;;;;;5015432;28;20444;-52
2023/05/19 09:34:03;;;;;;;6.93;2.60;;;23.30;99.90;;;;;;5015081;28;20443;-53
2023/05/19 09:36:30;;;;;;;7.07;2.83;;;23.60;99.90;;;;;;5015637;28;20229;-52
2023/05/19 09:38:55;;;;;;;6.03;2.50;;;24.10;99.90;;;;;;5015775;28;20868;-53
2023/05/19 09:41:22;;;;;;;6.53;2.60;;;24.30;99.90;;;;;;5015277;28;20431;-53
2023/05/19 09:43:53;;;;;;;9.90;2.50;;;24.40;99.90;;;;;;5015670;28;20207;-53
2023/05/19 09:46:27;;;;;;;10.77;2.80;;;24.40;99.90;;;;;;5015346;28;20960;-52
2023/05/19 09:48:59;;;;;;;4.93;3.00;;;24.30;99.90;;;;;;5016564;28;20456;-51
2023/05/19 09:51:24;;;;;;;6.57;2.70;;;24.10;99.90;;;;;;5018648;28;20528;-53
2023/05/19 09:53:52;;;;;;;7.13;2.53;;;24.40;99.90;;;;;;5018251;28;20484;-51
2023/05/19 09:56:22;;;;;;;6.10;2.40;;;24.40;99.90;;;;;;5019343;28;20187;-51
2023/05/19 09:58:48;;;;;;;5.93;2.33;;;24.20;99.90;;;;;;5019396;28;20446;-51
2023/05/19 10:01:14;;;;;;;6.20;2.60;;;24.40;99.90;;;;;;5018479;28;20537;-50
2023/05/19 10:03:41;;;;;;;8.30;2.30;;;24.50;99.90;;;;;;5019098;28;20808;-51
2023/05/19 10:06:08;;;;;;;10.90;2.27;;;24.40;99.90;;;;;;5018551;28;20440;-50
2023/05/19 10:08:34;;;;;;;8.27;2.20;;;24.90;99.90;;;;;;5018537;28;20445;-51
2023/05/19 10:11:01;;;;;;;8.20;2.90;;;25.40;99.90;;;;;;5022070;28;20434;-50
2023/05/19 10:13:28;;;;;;;7.03;2.40;;;25.60;99.90;;;;;;5019844;28;20541;-51
2023/05/19 10:15:56;;;;;;;7.53;2.40;;;25.60;99.90;;;;;;5018861;28;20446;-51
2023/05/19 10:18:24;;;;;;;7.90;3.07;;;25.30;99.90;;;;;;5018327;28;20458;-50
2023/05/19 10:20:50;;;;;;;3.73;2.03;;;24.80;99.90;;;;;;5018719;28;20508;-50
2023/05/19 10:23:16;;;;;;;6.33;2.37;;;24.60;99.90;;;;;;5022498;28;20576;-50
2023/05/19 10:25:42;;;;;;;4.93;2.50;;;24.50;99.90;;;;;;5018258;28;20864;-50
2023/05/19 10:28:12;;;;;;;7.00;2.43;;;24.80;99.90;;;;;;5018543;28;20191;-50
2023/05/19 10:30:47;;;;;;;7.00;2.60;;;24.80;99.90;;;;;;5020811;28;20505;-50
2023/05/19 10:33:16;;;;;;;9.30;2.63;;;24.70;99.90;;;;;;5020056;28;20449;-50
2023/05/19 10:35:42;;;;;;;9.50;2.40;;;24.70;99.90;;;;;;5021495;28;21001;-50
2023/05/19 10:38:41;;;;;;;12.13;2.83;;;24.90;99.90;;;;;;5018825;28;20455;-51
2023/05/19 10:41:10;;;;;;;5.33;2.23;;;24.80;99.90;;;;;;5011442;28;20350;-51
2023/05/19 10:44:12;;;;;;;7.50;2.13;;;25.40;99.90;;;;;;5022505;28;20458;-51
2023/05/19 10:46:39;;;;;;;7.10;2.23;;;25.60;99.90;;;;;;5018218;28;20437;-51
2023/05/19 10:49:07;;;;;;;8.23;2.20;;;26.10;99.90;;;;;;5017465;28;20785;-51
2023/05/19 10:51:34;;;;;;;8.07;2.60;;;26.20;99.90;;;;;;5017816;28;20482;-51
2023/05/19 10:54:02;;;;;;;6.10;2.50;;;26.30;99.90;;;;;;5018319;28;20494;-51
2023/05/19 10:56:32;;;;;;;6.37;2.60;;;25.90;99.90;;;;;;5021401;28;20512;-51
2023/05/19 10:58:58;;;;;;;9.10;2.70;;;25.60;99.90;;;;;;5017672;28;20519;-52
2023/05/19 11:01:32;;;;;;;5.97;2.23;;;25.90;99.90;;;;;;5017566;28;20446;-51
2023/05/19 11:04:04;;;;;;;6.67;2.73;;;26.40;99.90;;;;;;5016738;28;20977;-51
2023/05/19 11:06:32;;;;;;;5.67;2.30;;;26.70;99.90;;;;;;5017760;28;20438;-52
2023/05/19 11:09:11;;;;;;;4.17;2.00;;;27.10;99.90;;;;;;5024643;28;20885;-51
2023/05/19 11:11:53;;;;;;;5.97;2.57;;;27.10;99.90;;;;;;5021087;28;20433;-51
2023/05/19 11:14:24;;;;;;;10.57;2.90;;;26.90;99.90;;;;;;5018129;28;21005;-51
2023/05/19 11:16:51;;;;;;;6.60;2.53;;;26.60;99.90;;;;;;5017880;28;20466;-51
2023/05/19 11:19:28;;;;;;;8.33;2.20;;;26.60;99.90;;;;;;5017033;28;20450;-51
2023/05/19 11:21:56;;;;;;;8.10;2.83;;;26.80;99.90;;;;;;5018039;28;20478;-51
2023/05/19 11:24:35;;;;;;;7.20;2.37;;;27.00;99.90;;;;;;5017680;28;20455;-51
2023/05/19 11:27:27;;;;;;;5.60;2.40;;;27.10;99.90;;;;;;5020509;28;20447;-51
2023/05/19 11:29:55;;;;;;;6.50;2.37;;;26.50;99.90;;;;;;5020183;28;20461;-51
2023/05/19 11:32:25;;;;;;;4.43;2.30;;;25.20;99.90;;;;;;5018384;28;20937;-51
2023/05/19 11:34:51;;;;;;;8.10;2.47;;;25.20;99.90;;;;;;5017355;28;20435;-51
2023/05/19 11:37:17;;;;;;;7.53;2.30;;;25.20;99.90;;;;;;5017020;28;20504;-51
2023/05/19 11:39:45;;;;;;;5.90;2.30;;;25.60;99.90;;;;;;5016874;28;21033;-52
2023/05/19 11:42:10;;;;;;;5.97;2.87;;;26.30;99.90;;;;;;5017331;28;20234;-51
2023/05/19 11:44:37;;;;;;;7.30;2.00;;;26.90;99.90;;;;;;5016896;28;20933;-51
2023/05/19 11:47:06;;;;;;;4.10;2.20;;;27.00;99.90;;;;;;5020003;28;20523;-51
2023/05/19 11:49:32;;;;;;;6.67;2.33;;;26.70;99.90;;;;;;5016742;28;20847;-49
2023/05/19 11:51:59;;;;;;;7.60;2.97;;;25.60;99.90;;;;;;5016703;28;20869;-51
2023/05/19 11:54:35;;;;;;;5.80;2.30;;;24.60;99.90;;;;;;5016373;28;20445;-49
2023/05/19 11:57:04;;;;;;;7.10;2.50;;;23.20;99.90;;;;;;5017418;28;20450;-51
2023/05/19 11:59:34;;;;;;;6.83;1.97;;;23.50;99.90;;;;;;5017086;28;20436;-51
2023/05/19 12:02:05;;;;;;;4.90;2.50;;;24.10;99.90;;;;;;5016331;28;20488;-50
2023/05/19 12:04:30;;;;;;;3.73;2.20;;;24.10;99.90;;;;;;5016685;28;20536;-50
2023/05/19 12:06:56;;;;;;;9.53;2.60;;;23.20;99.90;;;;;;5020359;28;20931;-50
2023/05/19 12:09:23;;;;;;;6.73;2.40;;;22.90;99.90;;;;;;5016628;28;20206;-50
2023/05/19 12:11:50;;;;;;;3.90;2.20;;;22.50;99.90;;;;;;5017160;28;20212;-50
2023/05/19 12:14:17;;;;;;;8.90;2.20;;;22.20;99.90;;;;;;5016118;28;21028;-50
2023/05/19 12:16:42;;;;;;;5.47;2.30;;;21.80;99.90;;;;;;5016084;28;20446;-50
2023/05/19 12:19:08;;;;;;;5.50;2.60;;;21.60;99.90;;;;;;5016013;28;20542;-50
2023/05/19 12:21:34;;;;;;;4.80;2.40;;;22.10;99.90;;;;;;5016041;28;20216;-51
2023/05/19 12:24:00;;;;;;;5.10;2.20;;;23.40;99.90;;;;;;5020575;28;20592;-51
2023/05/19 12:26:26;;;;;;;6.50;2.30;;;24.90;99.90;;;;;;5016742;28;20447;-50
2023/05/19 12:28:52;;;;;;;5.63;2.50;;;25.30;99.90;;;;;;5016403;28;20768;-50
2023/05/19 12:31:18;;;;;;;3.87;1.83;;;25.10;99.90;;;;;;5016014;28;20274;-50
2023/05/19 12:33:47;;;;;;;5.40;1.87;;;25.30;99.90;;;;;;5016660;28;20450;-51
2023/05/19 12:36:14;;;;;;;5.23;2.13;;;26.00;99.90;;;;;;5015572;28;20449;-50
2023/05/19 12:38:41;;;;;;;3.67;2.03;;;26.40;99.90;;;;;;5015953;28;20525;-51
2023/05/19 12:41:06;;;;;;;3.33;1.90;;;26.60;99.90;;;;;;5015952;28;20434;-51
2023/05/19 12:43:32;;;;;;;5.10;1.87;;;27.00;99.90;;;;;;5016502;28;20928;-51
2023/05/19 12:46:07;;;;;;;6.80;2.53;;;27.30;99.90;;;;;;5015787;28;20187;-51
2023/05/19 12:48:33;;;;;;;4.70;2.60;;;27.40;99.90;;;;;;5015604;28;20187;-51
2023/05/19 12:50:58;;;;;;;9.07;2.23;;;26.30;99.90;;;;;;5015906;28;20485;-52